Time;durP1;ratioP1;P1;durP2;ratioP2;P2;SDS_P1;SDS_P2;PMS_P1;PMS_P2;Temp;Humidity;BMP_temperature;BMP_pressure;BME280_temperature;BME280_humidity;BME280_pressure;Samples;Min_cycle;Max_cycle;Signal;HPM_P1;HPM_P2
2021/10/01 00:01:07;;;;;;;7.85;4.10;;;;;;;8.56;85.69;98797.41;4979875;28;20555;-59
2021/10/01 00:03:32;;;;;;;10.40;4.50;;;;;;;8.70;84.83;98798.88;4980776;28;20037;-58
2021/10/01 00:05:58;;;;;;;8.10;4.55;;;;;;;8.47;85.23;98797.59;4980112;28;20030;-58
2021/10/01 00:08:23;;;;;;;8.32;4.13;;;;;;;8.54;85.71;98799.19;4980596;28;20415;-58
2021/10/01 00:10:48;;;;;;;10.10;4.45;;;;;;;8.20;85.98;98792.03;4979120;28;20471;-57
2021/10/01 00:13:14;;;;;;;9.13;4.22;;;;;;;8.44;85.38;98792.47;4980234;28;20026;-58
2021/10/01 00:15:39;;;;;;;10.32;4.30;;;;;;;8.40;86.22;98790.75;4978506;28;20041;-57
2021/10/01 00:18:05;;;;;;;8.65;4.20;;;;;;;8.56;84.47;98792.19;4980340;28;20081;-59
2021/10/01 00:20:30;;;;;;;8.27;3.83;;;;;;;8.77;84.55;98784.88;4979199;28;20412;-57
2021/10/01 00:22:56;;;;;;;8.38;4.00;;;;;;;8.28;85.57;98790.13;4978809;28;20022;-57
2021/10/01 00:25:21;;;;;;;10.68;4.07;;;;;;;8.40;84.76;98788.16;4979761;28;20026;-58
2021/10/01 00:27:47;;;;;;;8.70;4.20;;;;;;;8.51;84.44;98777.59;4980113;28;20026;-58
2021/10/01 00:30:12;;;;;;;10.05;4.40;;;;;;;8.25;85.24;98782.41;4979527;28;20027;-59
2021/10/01 00:32:37;;;;;;;10.07;4.38;;;;;;;8.16;86.02;98779.09;4979638;28;20029;-58
2021/10/01 00:35:03;;;;;;;10.00;4.93;;;;;;;8.05;85.71;98779.28;4978741;28;20053;-57
2021/10/01 00:37:29;;;;;;;9.27;4.32;;;;;;;8.11;85.27;98774.00;4994105;28;20774;-58
2021/10/01 00:39:54;;;;;;;9.07;4.60;;;;;;;8.05;86.77;98766.28;4979311;28;20026;-58
2021/10/01 00:42:20;;;;;;;9.93;4.40;;;;;;;8.18;85.16;98765.22;4978639;28;20073;-57
2021/10/01 00:44:46;;;;;;;8.95;4.20;;;;;;;8.37;84.89;98770.91;4979720;28;20069;-60
2021/10/01 00:47:11;;;;;;;9.60;4.95;;;;;;;8.30;83.63;98761.50;4978961;28;20066;-58
2021/10/01 00:49:37;;;;;;;11.07;4.80;;;;;;;8.18;84.81;98760.00;4979376;28;20472;-60
2021/10/01 00:52:03;;;;;;;10.68;5.18;;;;;;;8.38;83.78;98756.13;4983396;28;20042;-58
2021/10/01 00:54:28;;;;;;;14.18;4.53;;;;;;;8.50;83.13;98753.34;4979364;28;20030;-58
2021/10/01 00:56:55;;;;;;;9.93;4.28;;;;;;;8.44;84.37;98756.06;4978194;28;20045;-58
2021/10/01 00:59:21;;;;;;;8.52;4.45;;;;;;;7.99;85.22;98750.84;4979037;28;20034;-58
2021/10/01 01:01:46;;;;;;;7.65;4.30;;;;;;;8.29;84.97;98757.22;4978325;28;20043;-58
2021/10/01 01:04:11;;;;;;;8.98;3.92;;;;;;;8.22;84.34;98756.47;4979433;28;20034;-58
2021/10/01 01:06:42;;;;;;;7.63;4.18;;;;;;;8.08;84.79;98761.06;4979047;28;20038;-58
2021/10/01 01:09:31;;;;;;;10.88;4.40;;;;;;;7.94;87.16;98758.72;4978859;28;20060;-58
2021/10/01 01:12:09;;;;;;;10.02;4.43;;;;;;;7.71;86.38;98743.53;4978488;28;20039;-60
2021/10/01 01:15:11;;;;;;;9.55;4.45;;;;;;;7.90;86.58;98747.53;4979065;28;20116;-59
2021/10/01 01:17:48;;;;;;;9.07;4.50;;;;;;;8.06;83.51;98747.25;4978853;28;20039;-59
2021/10/01 01:20:22;;;;;;;11.30;4.55;;;;;;;7.79;85.59;98739.06;4978577;28;20036;-58
2021/10/01 01:23:10;;;;;;;9.07;4.20;;;;;;;7.92;85.12;98742.28;4978594;28;20495;-59
2021/10/01 01:25:42;;;;;;;10.35;4.57;;;;;;;7.87;85.05;98744.97;4978561;28;20045;-58
2021/10/01 01:28:13;;;;;;;8.55;4.22;;;;;;;7.80;85.92;98734.75;4978822;28;20053;-59
2021/10/01 01:30:42;;;;;;;13.20;4.55;;;;;;;7.72;86.11;98733.13;4976011;28;20042;-58
2021/10/01 01:33:20;;;;;;;9.65;4.18;;;;;;;7.63;87.26;98729.84;4978919;28;20030;-59
2021/10/01 01:35:48;;;;;;;13.57;4.40;;;;;;;7.97;84.42;98735.25;4978743;28;20049;-58
2021/10/01 01:38:31;;;;;;;10.70;4.22;;;;;;;7.81;85.28;98728.63;4978446;28;20050;-58
2021/10/01 01:41:00;;;;;;;8.82;4.22;;;;;;;7.82;85.23;98726.03;4992162;28;20044;-58
2021/10/01 01:43:27;;;;;;;8.65;4.05;;;;;;;7.92;86.74;98724.09;4979257;28;20660;-58
2021/10/01 01:45:54;;;;;;;8.82;3.97;;;;;;;8.22;83.62;98725.28;4978449;28;20065;-58
2021/10/01 01:48:20;;;;;;;9.15;3.70;;;;;;;8.13;84.93;98720.25;4978744;28;20498;-58
2021/10/01 01:50:46;;;;;;;8.98;4.13;;;;;;;8.20;83.08;98715.81;4977922;28;20053;-58
2021/10/01 01:53:14;;;;;;;8.90;4.18;;;;;;;7.62;85.63;98712.53;4978127;28;20018;-58
2021/10/01 01:55:40;;;;;;;8.20;4.05;;;;;;;8.03;83.59;98709.19;4978228;28;20054;-58
2021/10/01 01:58:06;;;;;;;7.85;4.00;;;;;;;8.00;84.11;98713.59;4978509;28;20022;-58
2021/10/01 02:00:33;;;;;;;12.05;4.13;;;;;;;7.71;84.90;98702.00;4978174;28;20046;-58
2021/10/01 02:02:59;;;;;;;10.63;4.07;;;;;;;7.63;85.23;98704.72;4977903;28;20681;-58
2021/10/01 02:05:25;;;;;;;9.00;3.92;;;;;;;7.92;84.40;98705.91;4978536;28;20117;-58
2021/10/01 02:07:54;;;;;;;7.28;3.85;;;;;;;7.94;85.00;98706.78;4978467;28;20172;-60
2021/10/01 02:10:21;;;;;;;11.82;4.18;;;;;;;7.70;85.06;98701.16;4977651;28;20031;-58
2021/10/01 02:12:49;;;;;;;12.43;4.10;;;;;;;7.95;85.79;98695.47;4978561;28;20100;-58
2021/10/01 02:15:16;;;;;;;8.40;3.90;;;;;;;7.90;84.17;98698.19;4978114;28;20030;-58
2021/10/01 02:17:44;;;;;;;10.45;3.97;;;;;;;7.47;85.41;98695.50;4977421;28;20030;-59
2021/10/01 02:20:11;;;;;;;9.13;4.10;;;;;;;7.34;86.21;98700.03;4977707;28;20053;-58
2021/10/01 02:22:37;;;;;;;7.43;3.70;;;;;;;7.60;84.82;98697.00;4978553;28;20026;-59
2021/10/01 02:25:05;;;;;;;7.88;3.92;;;;;;;7.60;85.20;98702.19;4978766;28;20037;-58
2021/10/01 02:27:45;;;;;;;8.90;4.30;;;;;;;7.40;86.70;98692.13;4981687;28;20496;-58
2021/10/01 02:30:15;;;;;;;8.73;4.10;;;;;;;7.34;85.39;98692.25;4981037;28;20034;-58
2021/10/01 02:33:02;;;;;;;8.05;4.38;;;;;;;7.20;86.34;98694.22;4982131;28;20474;-57
2021/10/01 02:35:28;;;;;;;13.32;4.20;;;;;;;7.62;84.38;98679.63;4980455;28;20047;-57
2021/10/01 02:37:54;;;;;;;8.15;4.03;;;;;;;7.66;84.34;98683.03;4982101;28;20026;-57
2021/10/01 02:40:20;;;;;;;10.52;4.20;;;;;;;7.57;84.67;98681.44;4981040;28;20741;-57
2021/10/01 02:42:46;;;;;;;10.10;3.85;;;;;;;7.47;85.39;98678.19;4981702;28;20023;-58
2021/10/01 02:45:11;;;;;;;7.78;3.63;;;;;;;7.32;85.22;98678.44;4981581;28;20037;-58
2021/10/01 02:47:37;;;;;;;9.60;3.88;;;;;;;7.28;85.80;98682.00;4982059;28;20408;-58
2021/10/01 02:50:06;;;;;;;7.53;3.85;;;;;;;7.21;86.22;98680.38;4981241;28;20625;-57
2021/10/01 02:52:40;;;;;;;13.27;4.00;;;;;;;7.29;85.81;98678.50;4981446;28;20294;-58
2021/10/01 02:55:14;;;;;;;8.98;3.80;;;;;;;7.65;85.66;98671.81;4981589;28;20081;-59
2021/10/01 02:58:06;;;;;;;10.48;4.30;;;;;;;7.59;84.57;98676.25;4981523;28;20101;-58
2021/10/01 03:00:32;;;;;;;9.60;3.83;;;;;;;7.42;85.05;98674.78;4980519;28;21166;-58
2021/10/01 03:02:58;;;;;;;6.93;3.67;;;;;;;7.33;85.87;98670.66;4981774;28;20816;-58
2021/10/01 03:05:24;;;;;;;8.90;3.72;;;;;;;7.20;86.35;98670.88;4980667;28;20034;-58
2021/10/01 03:07:50;;;;;;;8.32;3.90;;;;;;;7.24;85.21;98663.03;4981504;28;20034;-57
2021/10/01 03:10:16;;;;;;;6.88;3.72;;;;;;;7.14;86.17;98664.88;4980347;28;20128;-58
2021/10/01 03:12:44;;;;;;;9.57;3.83;;;;;;;7.22;85.37;98656.13;4981385;28;20038;-59
2021/10/01 03:15:11;;;;;;;7.75;3.78;;;;;;;7.14;85.97;98659.69;4981150;28;20061;-58
2021/10/01 03:17:38;;;;;;;10.43;3.90;;;;;;;7.16;85.59;98661.44;4981770;28;20026;-58
2021/10/01 03:20:04;;;;;;;12.73;4.10;;;;;;;7.13;85.68;98662.31;4979219;28;20034;-58
2021/10/01 03:22:33;;;;;;;9.52;3.90;;;;;;;7.39;84.70;98658.41;4981009;28;20029;-57
2021/10/01 03:25:00;;;;;;;8.73;3.88;;;;;;;7.25;85.21;98656.94;4981404;28;20026;-58
2021/10/01 03:27:28;;;;;;;8.63;3.70;;;;;;;7.19;85.97;98646.66;4981349;28;20042;-58
2021/10/01 03:29:59;;;;;;;7.68;3.72;;;;;;;7.26;85.05;98650.88;4980816;28;20030;-58
2021/10/01 03:32:25;;;;;;;6.63;3.47;;;;;;;7.20;85.30;98644.91;4980702;28;20049;-57
2021/10/01 03:34:51;;;;;;;9.13;3.60;;;;;;;7.28;85.35;98643.06;4980552;28;20018;-58
2021/10/01 03:37:16;;;;;;;10.30;4.05;;;;;;;7.38;84.47;98634.22;4980205;28;20042;-57
2021/10/01 03:39:42;;;;;;;8.70;3.95;;;;;;;7.44;85.23;98641.88;4980825;28;20030;-58
2021/10/01 03:42:07;;;;;;;9.38;3.97;;;;;;;7.63;84.96;98646.75;4980473;28;20137;-58
2021/10/01 03:44:32;;;;;;;8.48;3.97;;;;;;;7.58;82.84;98636.44;4980937;28;20026;-57
2021/10/01 03:46:58;;;;;;;11.02;3.88;;;;;;;7.41;83.96;98643.69;4980335;28;20089;-57
2021/10/01 03:49:23;;;;;;;8.07;3.60;;;;;;;7.79;84.50;98635.16;4980838;28;20026;-57
2021/10/01 03:51:48;;;;;;;9.05;4.10;;;;;;;7.36;85.09;98638.56;4978905;28;20065;-58
2021/10/01 03:54:14;;;;;;;9.90;4.15;;;;;;;7.87;83.45;98635.88;4980866;28;20689;-58
2021/10/01 03:56:39;;;;;;;10.85;4.03;;;;;;;7.53;85.04;98636.56;4980284;28;20046;-57
2021/10/01 03:59:04;;;;;;;12.43;4.15;;;;;;;7.86;83.88;98631.56;4980662;28;20030;-58
2021/10/01 04:01:30;;;;;;;8.00;3.90;;;;;;;7.96;83.00;98628.78;4994334;28;20555;-58
2021/10/01 04:03:55;;;;;;;9.60;4.18;;;;;;;7.83;83.52;98623.84;4980400;28;20031;-58
2021/10/01 04:06:20;;;;;;;9.27;3.95;;;;;;;7.57;84.56;98631.28;4980068;28;20046;-58
2021/10/01 04:08:46;;;;;;;9.32;4.20;;;;;;;7.87;85.61;98620.31;4980083;28;20057;-58
2021/10/01 04:11:12;;;;;;;8.65;4.05;;;;;;;8.03;83.29;98627.78;4979616;28;20042;-57
2021/10/01 04:13:39;;;;;;;9.10;4.15;;;;;;;7.99;83.54;98621.78;4980586;28;20052;-58
2021/10/01 04:16:05;;;;;;;10.45;4.22;;;;;;;7.59;84.51;98624.31;4979652;28;20045;-58
2021/10/01 04:18:30;;;;;;;8.90;4.22;;;;;;;7.91;83.53;98621.94;4980175;28;20026;-58
2021/10/01 04:20:55;;;;;;;10.98;4.28;;;;;;;7.72;83.09;98612.84;4977883;28;20456;-58
2021/10/01 04:23:21;;;;;;;8.52;3.90;;;;;;;7.73;83.82;98611.94;4981157;28;20522;-57
2021/10/01 04:25:46;;;;;;;7.95;3.88;;;;;;;7.84;83.64;98615.16;4979215;28;20034;-57
2021/10/01 04:28:11;;;;;;;8.02;4.10;;;;;;;7.49;84.09;98614.09;4981417;28;20030;-58
2021/10/01 04:30:46;;;;;;;12.18;4.40;;;;;;;7.46;84.87;98606.41;4979566;28;20034;-58
2021/10/01 04:33:21;;;;;;;9.02;4.15;;;;;;;7.79;83.70;98604.00;4981246;28;20495;-58
2021/10/01 04:35:46;;;;;;;9.93;4.22;;;;;;;7.24;85.27;98602.47;4980649;28;20045;-58
2021/10/01 04:38:12;;;;;;;7.82;4.00;;;;;;;7.88;82.35;98611.63;4981259;28;20065;-59
2021/10/01 04:40:37;;;;;;;8.35;3.88;;;;;;;7.71;83.64;98603.31;4979915;28;20657;-59
2021/10/01 04:43:03;;;;;;;10.02;4.30;;;;;;;7.71;83.64;98605.91;4980933;28;20034;-57
2021/10/01 04:45:28;;;;;;;10.15;4.63;;;;;;;7.69;83.39;98605.09;4980579;28;20399;-58
2021/10/01 04:47:54;;;;;;;9.80;4.00;;;;;;;7.46;84.11;98614.19;4980234;28;20077;-58
2021/10/01 04:50:19;;;;;;;10.05;4.75;;;;;;;7.47;84.78;98613.28;4979550;28;20129;-58
2021/10/01 04:52:44;;;;;;;11.80;4.32;;;;;;;7.73;84.09;98606.72;4980262;28;20032;-58
2021/10/01 04:55:10;;;;;;;8.50;3.97;;;;;;;7.93;84.68;98614.13;4980412;28;20073;-57
2021/10/01 04:57:35;;;;;;;8.88;4.07;;;;;;;7.97;83.59;98615.75;4980523;28;20026;-58
2021/10/01 05:00:01;;;;;;;11.35;3.97;;;;;;;8.11;82.65;98605.09;4980494;28;20033;-59
2021/10/01 05:02:26;;;;;;;9.38;4.38;;;;;;;7.44;84.09;98615.91;4972555;28;20038;-58
2021/10/01 05:04:54;;;;;;;9.52;4.32;;;;;;;7.79;83.34;98608.34;4982263;28;20031;-58
2021/10/01 05:07:21;;;;;;;8.18;4.22;;;;;;;7.84;83.23;98607.38;4981429;28;20038;-58
2021/10/01 05:09:46;;;;;;;9.95;4.30;;;;;;;7.98;83.24;98614.91;4982698;28;20495;-60
2021/10/01 05:12:12;;;;;;;12.10;5.30;;;;;;;8.00;83.73;98614.88;4982363;28;20042;-58
2021/10/01 05:14:37;;;;;;;12.38;5.18;;;;;;;7.75;83.88;98610.16;4983288;28;20058;-58
2021/10/01 05:17:03;;;;;;;10.02;4.28;;;;;;;7.86;83.58;98615.97;4982855;28;20066;-58
2021/10/01 05:19:28;;;;;;;14.10;4.30;;;;;;;7.96;83.26;98614.06;4982871;28;20026;-58
2021/10/01 05:21:53;;;;;;;9.48;4.63;;;;;;;8.01;83.91;98611.38;4981328;28;20065;-59
2021/10/01 05:24:19;;;;;;;8.35;4.38;;;;;;;7.84;83.64;98617.75;4981360;28;20065;-58
2021/10/01 05:26:44;;;;;;;9.18;4.65;;;;;;;8.07;84.46;98612.09;4981421;28;20153;-58
2021/10/01 05:29:10;;;;;;;10.52;4.43;;;;;;;7.99;84.89;98613.13;4981639;28;20080;-58
2021/10/01 05:31:36;;;;;;;8.98;4.40;;;;;;;7.93;83.10;98610.69;4980771;28;20137;-58
2021/10/01 05:34:02;;;;;;;9.38;4.88;;;;;;;8.27;84.48;98606.47;4981639;28;20030;-58
2021/10/01 05:36:27;;;;;;;8.90;5.00;;;;;;;8.29;84.02;98609.06;4981110;28;20038;-58
2021/10/01 05:38:52;;;;;;;9.43;4.38;;;;;;;8.25;82.31;98616.06;4981091;28;20033;-57
2021/10/01 05:41:19;;;;;;;11.20;4.95;;;;;;;8.60;82.14;98614.44;4980621;28;20909;-58
2021/10/01 05:43:45;;;;;;;9.15;4.53;;;;;;;8.63;83.82;98616.94;4981314;28;20041;-58
2021/10/01 05:46:10;;;;;;;13.93;4.63;;;;;;;8.95;82.90;98607.53;4981200;28;20030;-58
2021/10/01 05:48:38;;;;;;;10.60;4.80;;;;;;;9.14;82.45;98614.88;4981048;28;20546;-58
2021/10/01 05:51:08;;;;;;;9.02;4.65;;;;;;;9.63;82.54;98616.19;4980236;28;20039;-58
2021/10/01 05:53:46;;;;;;;8.02;4.20;;;;;;;9.60;81.46;98611.91;4995852;28;20373;-58
2021/10/01 05:56:12;;;;;;;9.55;4.82;;;;;;;10.72;86.81;98614.78;4980316;28;20550;-58
2021/10/01 05:58:39;;;;;;;8.63;4.25;;;;;;;9.95;81.97;98612.69;4979784;28;20168;-59
2021/10/01 06:01:06;;;;;;;8.38;4.25;;;;;;;10.53;79.98;98620.56;4983055;28;20049;-58
2021/10/01 06:03:31;;;;;;;9.13;4.03;;;;;;;9.73;79.08;98615.03;4982878;28;20023;-58
2021/10/01 06:05:57;;;;;;;11.20;4.47;;;;;;;9.80;80.62;98624.41;4983770;28;20066;-58
2021/10/01 06:08:22;;;;;;;8.38;4.07;;;;;;;10.03;79.57;98621.16;4983733;28;20081;-58
2021/10/01 06:10:47;;;;;;;11.02;4.40;;;;;;;10.83;82.20;98612.66;4982248;28;20169;-59
2021/10/01 06:13:13;;;;;;;7.40;4.03;;;;;;;10.95;75.71;98612.28;4984978;28;20918;-57
2021/10/01 06:15:39;;;;;;;8.70;3.97;;;;;;;12.31;76.08;98615.34;4984580;28;20050;-57
2021/10/01 06:18:04;;;;;;;7.85;3.92;;;;;;;11.80;77.04;98621.56;4983985;28;20563;-57
2021/10/01 06:20:29;;;;;;;7.75;3.83;;;;;;;11.76;76.05;98608.63;4984365;28;20199;-57
2021/10/01 06:22:55;;;;;;;10.00;3.80;;;;;;;11.72;74.64;98614.00;4985319;28;20973;-58
2021/10/01 06:25:20;;;;;;;6.47;3.50;;;;;;;13.11;75.44;98613.03;4984401;28;20520;-58
2021/10/01 06:27:45;;;;;;;7.45;4.40;;;;;;;13.09;72.45;98607.00;4984626;28;20089;-58
2021/10/01 06:30:11;;;;;;;8.40;3.63;;;;;;;13.60;69.93;98611.88;4984069;28;20034;-58
2021/10/01 06:32:38;;;;;;;5.78;3.22;;;;;;;13.97;68.08;98603.25;4984409;28;20038;-58
2021/10/01 06:35:05;;;;;;;7.40;3.22;;;;;;;13.97;66.18;98602.38;4984582;28;20033;-58
2021/10/01 06:37:30;;;;;;;5.38;3.00;;;;;;;14.62;64.93;98605.53;4984299;28;20042;-58
2021/10/01 06:39:56;;;;;;;5.85;3.30;;;;;;;16.17;60.92;98599.44;4984205;28;20048;-58
2021/10/01 06:42:22;;;;;;;8.60;3.42;;;;;;;16.58;58.63;98602.44;4983612;28;20145;-58
2021/10/01 06:44:50;;;;;;;7.18;3.13;;;;;;;16.40;59.05;98597.34;4983698;28;20574;-57
2021/10/01 06:47:24;;;;;;;6.50;3.08;;;;;;;16.69;56.22;98599.19;4984122;28;20053;-58
2021/10/01 06:50:10;;;;;;;8.40;2.80;;;;;;;17.23;54.48;98598.75;4983755;28;20113;-57
2021/10/01 07:21:06;;;;;;;5.57;2.65;;;;;;;17.36;55.04;98592.78;4984450;28;20247;-58
2021/10/01 07:23:18;;;;;;;4.82;2.50;;;;;;;19.17;49.23;98567.31;4983589;28;20112;-57
2021/10/01 08:20:44;;;;;;;10.13;2.10;;;;;;;27.35;33.71;98530.69;4981365;28;20479;-57
2021/10/01 08:23:10;;;;;;;3.35;1.63;;;;;;;23.64;38.06;98527.03;4981334;28;20400;-58
2021/10/01 08:25:35;;;;;;;3.33;1.70;;;;;;;23.52;39.48;98529.91;4981393;28;20038;-58
2021/10/01 08:28:01;;;;;;;5.20;1.70;;;;;;;24.61;37.21;98531.00;4982413;28;20037;-60
2021/10/01 08:30:27;;;;;;;3.85;1.70;;;;;;;22.86;39.88;98523.81;4981543;28;20116;-59
2021/10/01 08:32:52;;;;;;;3.53;1.60;;;;;;;24.76;36.27;98518.94;4997029;28;20431;-59
2021/10/01 08:35:21;;;;;;;3.83;1.70;;;;;;;24.28;37.02;98524.19;4981558;28;20091;-60
2021/10/01 08:37:48;;;;;;;3.58;1.48;;;;;;;23.88;37.75;98525.91;4982271;28;20026;-59
2021/10/01 08:40:14;;;;;;;4.55;1.60;;;;;;;24.36;37.66;98522.53;4980709;28;20492;-60
2021/10/01 08:42:41;;;;;;;5.47;1.80;;;;;;;23.18;39.54;98525.66;4982200;28;20085;-59
2021/10/01 08:45:09;;;;;;;3.92;1.60;;;;;;;21.61;41.54;98535.63;4981245;28;20018;-60
2021/10/01 08:47:34;;;;;;;5.93;1.80;;;;;;;20.72;44.21;98523.81;4982291;28;20048;-59
2021/10/01 08:50:01;;;;;;;6.25;1.83;;;;;;;22.10;41.92;98517.66;4981779;28;20026;-61
2021/10/01 08:52:26;;;;;;;8.13;1.70;;;;;;;22.35;42.30;98516.53;4981640;28;20080;-61
2021/10/01 08:54:52;;;;;;;4.40;1.70;;;;;;;22.93;40.30;98515.34;4980100;28;20026;-59
2021/10/01 08:57:18;;;;;;;3.90;1.50;;;;;;;22.82;40.00;98509.09;4981563;28;20053;-57
2021/10/01 08:59:43;;;;;;;5.35;2.00;;;;;;;22.95;40.22;98511.59;4996444;28;20030;-58
2021/10/01 09:02:09;;;;;;;5.15;1.70;;;;;;;23.09;41.21;98507.81;4981261;28;20043;-58
2021/10/01 09:04:34;;;;;;;3.70;1.65;;;;;;;23.04;40.10;98502.84;4980398;28;20034;-57
2021/10/01 09:07:02;;;;;;;6.43;1.60;;;;;;;24.34;38.27;98497.00;4980881;28;20420;-60
2021/10/01 09:09:35;;;;;;;4.47;2.00;;;;;;;24.66;37.51;98496.75;4980684;28;20117;-58
2021/10/01 09:12:02;;;;;;;4.30;1.98;;;;;;;24.12;38.44;98503.41;4980263;28;20656;-57
2021/10/01 09:14:28;;;;;;;4.32;1.80;;;;;;;24.80;37.10;98504.34;4981810;28;20720;-58
2021/10/01 09:16:54;;;;;;;3.92;1.70;;;;;;;25.76;35.72;98500.78;4981203;28;20547;-58
2021/10/01 09:19:19;;;;;;;2.95;1.70;;;;;;;23.93;38.29;98488.19;4981445;28;20041;-58
2021/10/01 09:21:46;;;;;;;3.67;1.77;;;;;;;22.56;40.98;98492.66;4981007;28;20527;-58
2021/10/01 09:24:15;;;;;;;3.13;1.52;;;;;;;24.71;37.19;98489.19;4981708;28;20049;-58
2021/10/01 09:26:49;;;;;;;4.32;1.67;;;;;;;23.42;39.24;98484.63;4980541;28;20070;-58
2021/10/01 09:29:33;;;;;;;3.80;1.70;;;;;;;22.86;40.47;98483.09;4981291;28;20044;-58
2021/10/01 09:32:07;;;;;;;3.10;1.60;;;;;;;24.84;37.61;98477.38;4980189;28;21044;-58
2021/10/01 09:34:36;;;;;;;6.15;1.70;;;;;;;24.98;37.06;98479.63;4981451;28;20022;-58
2021/10/01 09:37:15;;;;;;;3.45;1.60;;;;;;;22.51;41.05;98479.75;4980891;28;20042;-57
2021/10/01 09:39:44;;;;;;;4.43;1.65;;;;;;;23.63;39.30;98461.41;4981192;28;20057;-58
2021/10/01 09:42:18;;;;;;;3.20;1.50;;;;;;;24.30;38.21;98463.56;4980711;28;20042;-58
2021/10/01 09:45:01;;;;;;;7.28;1.67;;;;;;;23.46;39.59;98459.41;4979353;28;20601;-58
2021/10/01 09:47:29;;;;;;;3.85;1.70;;;;;;;24.23;38.56;98464.13;4980703;28;20115;-58
2021/10/01 09:50:27;;;;;;;4.97;1.80;;;;;;;23.83;39.20;98464.19;4979678;28;20523;-59
2021/10/01 09:53:02;;;;;;;3.40;1.60;;;;;;;24.68;38.03;98445.94;4981038;28;20050;-59
2021/10/01 09:55:29;;;;;;;6.78;2.00;;;;;;;25.37;37.39;98453.69;4979433;28;20034;-59
2021/10/01 09:58:08;;;;;;;5.28;1.65;;;;;;;24.27;38.30;98443.38;4981462;28;20471;-59
2021/10/01 10:00:52;;;;;;;2.90;1.52;;;;;;;24.58;37.76;98440.63;4980730;28;20045;-59
2021/10/01 10:03:23;;;;;;;3.35;1.52;;;;;;;24.43;38.53;98433.00;4981339;28;20023;-59
2021/10/01 10:05:58;;;;;;;3.33;1.70;;;;;;;24.37;38.59;98430.06;4979291;28;20145;-59
2021/10/01 10:08:27;;;;;;;3.33;1.70;;;;;;;23.41;39.32;98435.00;4981224;28;20037;-59
2021/10/01 10:10:55;;;;;;;4.35;1.73;;;;;;;23.57;40.01;98429.19;4979517;28;20045;-58
2021/10/01 10:13:43;;;;;;;6.05;1.90;;;;;;;22.67;41.04;98426.16;4981551;28;20026;-58
2021/10/01 10:16:27;;;;;;;4.60;1.80;;;;;;;23.76;39.50;98423.06;4980235;28;20070;-57
2021/10/01 10:19:06;;;;;;;5.32;1.80;;;;;;;23.03;40.61;98425.81;4980754;28;20032;-57
2021/10/01 10:21:31;;;;;;;3.85;1.45;;;;;;;23.72;39.86;98419.00;4979635;28;20046;-58
2021/10/01 10:23:57;;;;;;;4.32;1.60;;;;;;;23.58;39.73;98421.06;4981143;28;20034;-57
2021/10/01 10:26:27;;;;;;;9.63;1.88;;;;;;;22.90;40.70;98418.88;4979011;28;20061;-57
2021/10/01 10:28:54;;;;;;;3.70;1.58;;;;;;;24.17;39.65;98421.19;4980748;28;20034;-57
2021/10/01 10:31:24;;;;;;;5.50;2.08;;;;;;;24.17;39.05;98421.19;4979505;28;20030;-57
2021/10/01 10:33:52;;;;;;;3.80;1.63;;;;;;;23.83;39.52;98418.91;4980870;28;20030;-57
2021/10/01 10:36:47;;;;;;;3.40;1.60;;;;;;;22.47;41.30;98414.50;4979910;28;20042;-57
2021/10/01 10:39:12;;;;;;;4.05;1.60;;;;;;;23.36;39.73;98403.47;4980582;28;20033;-57
2021/10/01 10:41:40;;;;;;;5.32;1.50;;;;;;;24.89;37.33;98401.28;4978946;28;20038;-57
2021/10/01 10:44:08;;;;;;;3.58;1.55;;;;;;;23.70;39.72;98387.16;4981253;28;20030;-58
2021/10/01 10:46:36;;;;;;;3.60;1.50;;;;;;;23.92;39.56;98407.44;4981144;28;20125;-58
2021/10/01 10:49:24;;;;;;;2.75;1.50;;;;;;;23.61;39.39;98393.31;4984368;28;20489;-58
2021/10/01 10:52:06;;;;;;;4.60;1.60;;;;;;;23.78;39.57;98386.47;4983297;28;20053;-57
2021/10/01 10:55:09;;;;;;;2.92;1.50;;;;;;;22.90;41.00;98394.94;4984305;28;20022;-59
2021/10/01 10:57:37;;;;;;;2.47;1.50;;;;;;;23.64;40.18;98377.91;4983179;28;20046;-58
2021/10/01 11:00:34;;;;;;;3.53;1.70;;;;;;;23.35;40.42;98384.97;4983672;28;20038;-57
2021/10/01 11:03:20;;;;;;;4.07;1.83;;;;;;;23.12;40.18;98371.81;4983931;28;20036;-58
2021/10/01 11:06:11;;;;;;;4.80;1.92;;;;;;;22.74;41.21;98372.47;4983264;28;20046;-57
2021/10/01 11:08:41;;;;;;;3.50;1.45;;;;;;;23.70;40.13;98359.69;4982993;28;20049;-57
2021/10/01 11:11:32;;;;;;;3.60;1.60;;;;;;;23.26;40.54;98355.50;4982757;28;20046;-58
2021/10/01 11:14:12;;;;;;;2.85;1.52;;;;;;;22.41;41.71;98361.88;4983655;28;20041;-57
2021/10/01 11:16:45;;;;;;;4.18;1.52;;;;;;;22.66;41.49;98352.69;4983213;28;20141;-58
2021/10/01 11:19:10;;;;;;;3.63;1.50;;;;;;;23.51;40.60;98340.03;4981897;28;20092;-58
2021/10/01 11:21:42;;;;;;;2.72;1.40;;;;;;;22.88;41.96;98349.03;4983247;28;20046;-58
2021/10/01 11:24:10;;;;;;;4.22;1.50;;;;;;;23.28;40.29;98345.56;4983434;28;20411;-58
2021/10/01 11:26:37;;;;;;;3.85;1.50;;;;;;;22.68;41.74;98341.91;4982899;28;20046;-57
2021/10/01 11:29:19;;;;;;;4.80;1.33;;;;;;;23.07;41.64;98331.50;4983153;28;20399;-58
2021/10/01 11:31:45;;;;;;;3.97;1.50;;;;;;;21.84;43.66;98334.69;4983226;28;20659;-58
2021/10/01 11:34:10;;;;;;;4.60;1.40;;;;;;;22.04;43.04;98337.53;4982094;28;20026;-58
2021/10/01 11:36:40;;;;;;;3.55;1.45;;;;;;;21.03;44.31;98341.19;4983171;28;20049;-57
2021/10/01 11:39:14;;;;;;;5.32;1.63;;;;;;;21.28;44.76;98325.00;4982466;28;20057;-57
2021/10/01 11:41:45;;;;;;;3.55;1.60;;;;;;;21.24;44.80;98318.25;4982958;28;20084;-58
2021/10/01 11:44:13;;;;;;;4.40;1.60;;;;;;;20.48;45.59;98325.91;4982400;28;20057;-58
2021/10/01 11:46:44;;;;;;;2.95;1.52;;;;;;;20.27;45.93;98325.72;4983103;28;20042;-58
2021/10/01 11:49:27;;;;;;;5.53;1.75;;;;;;;20.27;46.22;98314.28;4982685;28;20034;-58
2021/10/01 11:51:57;;;;;;;4.68;1.70;;;;;;;20.46;45.66;98306.66;4981395;28;20043;-58
2021/10/01 11:54:23;;;;;;;3.83;1.50;;;;;;;20.65;45.33;98299.97;4983108;28;20030;-58
2021/10/01 11:57:18;;;;;;;3.00;1.55;;;;;;;21.36;44.58;98290.75;4981449;28;20057;-59
2021/10/01 11:59:52;;;;;;;2.47;1.42;;;;;;;20.95;44.60;98296.69;4978410;28;20129;-60
2021/10/01 12:02:29;;;;;;;3.05;1.70;;;;;;;20.28;45.51;98286.88;4980818;28;20034;-58
2021/10/01 12:04:54;;;;;;;3.88;1.50;;;;;;;20.32;44.81;98288.31;4981329;28;20023;-59
2021/10/01 12:07:20;;;;;;;3.38;1.67;;;;;;;20.43;46.05;98285.66;4981285;28;20125;-58
2021/10/01 12:10:07;;;;;;;3.00;1.63;;;;;;;20.80;45.22;98278.38;4982256;28;20097;-58
2021/10/01 12:12:32;;;;;;;3.90;1.40;;;;;;;20.52;45.42;98278.81;4981922;28;20050;-59
2021/10/01 12:14:58;;;;;;;4.60;1.70;;;;;;;20.69;45.28;98272.25;4982368;28;20402;-58
2021/10/01 12:17:23;;;;;;;2.35;1.30;;;;;;;21.22;45.28;98261.84;4982197;28;20050;-57
2021/10/01 12:19:49;;;;;;;3.40;1.50;;;;;;;21.02;44.53;98257.28;4982474;28;20522;-58
2021/10/01 12:22:16;;;;;;;4.60;1.60;;;;;;;20.47;44.99;98265.09;4982266;28;20056;-57
2021/10/01 12:24:45;;;;;;;4.95;1.50;;;;;;;20.88;44.39;98248.63;4982332;28;20027;-57
2021/10/01 12:27:10;;;;;;;3.35;1.50;;;;;;;20.59;44.75;98249.06;4981644;28;20081;-58
2021/10/01 12:29:44;;;;;;;3.60;1.40;;;;;;;20.71;44.98;98247.28;4982320;28;20093;-58
2021/10/01 12:32:10;;;;;;;4.15;1.50;;;;;;;20.17;45.62;98238.19;4981843;28;20046;-57
2021/10/01 12:34:41;;;;;;;6.43;1.55;;;;;;;20.32;44.75;98241.47;4982259;28;20057;-59
2021/10/01 12:37:18;;;;;;;5.70;1.52;;;;;;;20.74;44.50;98240.91;4981896;28;20042;-59
2021/10/01 12:39:48;;;;;;;3.33;1.42;;;;;;;20.55;45.35;98237.03;4980250;28;20026;-58
2021/10/01 12:42:19;;;;;;;2.30;1.40;;;;;;;21.14;44.96;98233.28;4981829;28;20037;-58
2021/10/01 12:44:59;;;;;;;3.38;1.50;;;;;;;20.59;44.31;98240.28;4982065;28;20034;-58
2021/10/01 12:47:25;;;;;;;4.15;1.50;;;;;;;20.91;42.63;98237.75;4979900;28;20536;-58
2021/10/01 12:50:00;;;;;;;3.13;1.70;;;;;;;20.53;44.06;98228.38;4981712;28;20594;-58
2021/10/01 12:52:27;;;;;;;4.40;1.80;;;;;;;20.82;43.40;98219.09;4981210;28;20034;-58
2021/10/01 12:54:55;;;;;;;5.32;1.58;;;;;;;20.47;44.35;98223.53;4980012;28;20041;-58
2021/10/01 12:57:20;;;;;;;2.60;1.35;;;;;;;20.94;42.68;98213.66;4981451;28;20038;-59
2021/10/01 12:59:50;;;;;;;3.60;1.58;;;;;;;20.82;43.57;98211.97;4980735;28;20019;-58
2021/10/01 13:02:39;;;;;;;8.50;1.83;;;;;;;20.30;45.08;98208.13;4980537;28;20042;-59
2021/10/01 13:05:07;;;;;;;2.95;1.58;;;;;;;20.44;44.85;98197.28;4981633;28;20089;-58
2021/10/01 13:07:41;;;;;;;3.10;1.60;;;;;;;20.66;44.61;98190.31;4980943;28;20072;-59
2021/10/01 13:10:15;;;;;;;3.78;1.70;;;;;;;20.52;44.63;98194.03;4979172;28;20061;-58